Time;durP1;ratioP1;P1;durP2;ratioP2;P2;SDS_P1;SDS_P2;PMS_P1;PMS_P2;Temp;Humidity;BMP_temperature;BMP_pressure;BME280_temperature;BME280_humidity;BME280_pressure;Samples;Min_cycle;Max_cycle;Signal;HPM_P1;HPM_P2
2022/09/27 00:02:10;;;;;;;2.38;1.05;;;11.30;99.90;;;;;;5035397;28;20037;-65
2022/09/27 00:04:36;;;;;;;3.83;1.00;;;11.30;99.90;;;;;;5035490;28;20064;-65
2022/09/27 00:07:01;;;;;;;1.83;1.17;;;11.40;99.90;;;;;;5053167;28;20052;-65
2022/09/27 00:09:27;;;;;;;2.57;1.20;;;11.40;99.90;;;;;;5053075;28;20029;-65
2022/09/27 00:11:52;;;;;;;4.47;1.00;;;11.50;99.90;;;;;;5035417;28;20029;-65
2022/09/27 00:14:18;;;;;;;2.00;1.20;;;11.50;99.90;;;;;;5053135;28;20111;-65
2022/09/27 00:16:44;;;;;;;4.00;1.17;;;11.40;99.90;;;;;;5053335;28;20489;-65
2022/09/27 00:19:13;;;;;;;1.52;1.10;;;11.40;99.90;;;;;;5053040;28;20287;-65
2022/09/27 00:21:39;;;;;;;2.90;1.38;;;11.40;99.90;;;;;;5053501;28;20078;-65
2022/09/27 00:24:05;;;;;;;3.28;1.38;;;11.40;99.90;;;;;;5053688;28;20021;-65
2022/09/27 00:26:31;;;;;;;2.97;1.38;;;11.40;99.90;;;;;;5053369;28;20029;-65
2022/09/27 00:28:57;;;;;;;3.50;1.70;;;11.40;99.90;;;;;;5054207;28;20032;-64
2022/09/27 00:31:28;;;;;;;6.13;1.55;;;11.40;99.90;;;;;;5053901;28;20029;-65
2022/09/27 00:33:55;;;;;;;4.25;1.48;;;11.40;99.90;;;;;;5055357;28;20029;-65
2022/09/27 00:36:22;;;;;;;4.25;1.95;;;11.40;99.90;;;;;;5053096;28;20025;-65
2022/09/27 00:38:48;;;;;;;5.28;1.70;;;11.40;99.90;;;;;;5054576;28;20029;-65
2022/09/27 00:41:19;;;;;;;;;;;11.40;99.90;;;;;;5053382;28;20025;-65
2022/09/27 00:43:57;;;;;;;3.17;1.42;;;11.40;99.90;;;;;;5053451;28;19904;-65
2022/09/27 00:46:43;;;;;;;5.13;1.50;;;11.50;99.90;;;;;;5053120;28;20021;-64
2022/09/27 00:49:21;;;;;;;5.28;1.58;;;11.40;99.90;;;;;;5037890;28;20021;-65
2022/09/27 00:51:52;;;;;;;2.88;1.70;;;11.40;99.90;;;;;;5055265;28;20025;-65
2022/09/27 00:54:20;;;;;;;2.50;1.35;;;11.40;99.90;;;;;;5054959;28;20025;-65
2022/09/27 00:56:48;;;;;;;1.73;1.30;;;11.50;99.90;;;;;;5054897;28;20059;-65
2022/09/27 00:59:23;;;;;;;3.17;1.13;;;11.50;99.90;;;;;;5053652;28;20478;-64
2022/09/27 01:01:49;;;;;;;2.97;1.13;;;11.60;99.90;;;;;;5055085;28;20017;-65
2022/09/27 01:04:22;;;;;;;4.22;1.67;;;11.50;99.90;;;;;;5038959;28;20078;-65
2022/09/27 01:06:48;;;;;;;3.10;1.20;;;11.60;99.90;;;;;;5056809;28;20362;-65
2022/09/27 01:09:14;;;;;;;2.13;1.20;;;11.50;99.90;;;;;;5060451;28;20025;-65
2022/09/27 01:12:13;;;;;;;4.88;1.55;;;11.60;99.90;;;;;;5064117;28;20025;-65
2022/09/27 01:14:50;;;;;;;2.78;1.42;;;11.60;99.90;;;;;;5058217;28;20044;-65
2022/09/27 01:17:34;;;;;;;3.00;1.48;;;11.60;99.90;;;;;;5057396;28;20114;-65
2022/09/27 01:20:41;;;;;;;4.30;1.60;;;11.60;99.90;;;;;;5056373;28;20044;-65
2022/09/27 01:23:32;;;;;;;2.35;1.00;;;11.60;99.90;;;;;;5056499;28;20032;-65
2022/09/27 01:26:28;;;;;;;2.45;1.40;;;11.70;99.90;;;;;;5056664;28;20021;-65
2022/09/27 01:29:12;;;;;;;1.95;1.38;;;11.60;99.90;;;;;;5056053;28;20021;-64
2022/09/27 01:32:01;;;;;;;2.25;1.20;;;11.60;99.90;;;;;;5038132;28;20079;-65
2022/09/27 01:34:48;;;;;;;3.33;1.23;;;11.60;99.90;;;;;;5038167;28;20031;-67
2022/09/27 01:37:46;;;;;;;1.70;0.90;;;11.60;99.90;;;;;;5037958;28;20101;-69
2022/09/27 01:40:15;;;;;;;1.60;0.80;;;11.60;99.90;;;;;;5015205;28;20094;-69
2022/09/27 01:42:52;;;;;;;3.45;1.10;;;11.50;99.90;;;;;;5055679;28;20425;-69
2022/09/27 01:45:29;;;;;;;2.83;0.80;;;11.50;99.90;;;;;;5037736;28;20036;-69
2022/09/27 01:48:02;;;;;;;2.80;1.17;;;11.50;99.90;;;;;;5055657;28;20036;-69
2022/09/27 01:50:38;;;;;;;3.00;0.90;;;11.50;99.90;;;;;;5037698;28;20082;-69
2022/09/27 01:53:31;;;;;;;3.25;0.90;;;11.40;99.90;;;;;;5055586;28;20032;-69
2022/09/27 01:56:01;;;;;;;4.68;1.02;;;11.40;99.90;;;;;;5055515;28;20103;-69
2022/09/27 01:58:33;;;;;;;5.75;1.20;;;11.40;99.90;;;;;;5055360;28;20032;-69
2022/09/27 02:01:00;;;;;;;3.42;0.90;;;11.40;99.90;;;;;;5037400;28;20029;-68
2022/09/27 02:03:44;;;;;;;2.00;0.90;;;11.40;99.90;;;;;;5055348;28;20485;-68
2022/09/27 02:06:25;;;;;;;2.38;0.90;;;11.40;99.90;;;;;;5055653;28;20017;-68
2022/09/27 02:08:58;;;;;;;3.17;0.90;;;11.40;99.90;;;;;;5055270;28;20025;-68
2022/09/27 02:11:23;;;;;;;2.83;1.00;;;11.40;99.90;;;;;;5037500;28;20021;-68
2022/09/27 02:13:53;;;;;;;2.97;1.13;;;11.40;99.90;;;;;;5055293;28;20025;-68
2022/09/27 02:16:33;;;;;;;4.35;1.92;;;11.30;99.90;;;;;;5055187;28;20025;-68
2022/09/27 02:19:13;;;;;;;2.33;1.10;;;11.30;99.90;;;;;;5054922;28;20469;-68
2022/09/27 02:21:47;;;;;;;3.50;1.40;;;11.40;99.90;;;;;;5037081;28;20029;-68
2022/09/27 02:24:19;;;;;;;4.40;1.83;;;11.30;99.90;;;;;;5037525;28;20032;-68
2022/09/27 02:26:50;;;;;;;6.03;1.20;;;11.40;99.90;;;;;;5055603;28;20029;-68
2022/09/27 02:29:21;;;;;;;4.40;1.50;;;11.40;99.90;;;;;;5037393;28;20390;-67
2022/09/27 02:31:46;;;;;;;6.50;1.63;;;11.40;99.90;;;;;;5055090;28;20021;-68
2022/09/27 02:34:24;;;;;;;6.13;1.70;;;11.40;99.90;;;;;;5054889;28;20021;-68
2022/09/27 02:36:52;;;;;;;5.15;1.40;;;11.30;99.90;;;;;;5036863;28;20033;-67
2022/09/27 02:39:18;;;;;;;5.38;1.40;;;11.40;99.90;;;;;;5037194;28;20032;-67
2022/09/27 02:41:44;;;;;;;5.72;1.77;;;11.40;99.90;;;;;;5054959;28;20021;-67
2022/09/27 02:44:13;;;;;;;6.40;1.52;;;11.40;99.90;;;;;;5054366;28;20436;-67
2022/09/27 02:46:47;;;;;;;5.15;1.90;;;11.40;99.90;;;;;;5054482;28;20362;-67
2022/09/27 02:49:50;;;;;;;4.72;2.05;;;11.40;99.90;;;;;;5054477;28;20078;-67
2022/09/27 02:52:44;;;;;;;6.80;1.65;;;11.40;99.90;;;;;;5054326;28;20025;-68
2022/09/27 02:55:10;;;;;;;6.88;1.88;;;11.40;99.90;;;;;;5054719;28;20032;-67
2022/09/27 02:57:56;;;;;;;4.63;2.00;;;11.40;99.90;;;;;;5054667;28;20029;-67
2022/09/27 03:00:33;;;;;;;8.60;2.35;;;11.30;99.90;;;;;;5054101;28;20032;-67
2022/09/27 03:03:06;;;;;;;;;;;11.40;99.90;;;;;;5036950;28;20028;-67
2022/09/27 03:05:45;;;;;;;6.05;1.88;;;11.50;99.90;;;;;;5054654;28;19905;-67
2022/09/27 03:08:12;;;;;;;8.10;1.80;;;11.50;99.90;;;;;;5054327;28;20029;-67
2022/09/27 03:10:37;;;;;;;8.90;2.15;;;11.40;99.90;;;;;;5036421;28;20470;-66
2022/09/27 03:13:04;;;;;;;6.80;2.20;;;11.40;99.90;;;;;;5054334;28;20079;-66
2022/09/27 03:15:30;;;;;;;6.10;2.13;;;11.40;99.90;;;;;;5036192;28;20071;-66
2022/09/27 03:17:56;;;;;;;;;;;11.50;99.90;;;;;;5036656;28;20520;-66
2022/09/27 03:20:22;;;;;;;4.95;1.95;;;11.40;99.90;;;;;;5054042;28;19908;-66
2022/09/27 03:22:47;;;;;;;5.27;2.47;;;11.40;99.90;;;;;;5036122;28;20025;-66
2022/09/27 03:25:13;;;;;;;7.83;2.40;;;11.40;99.90;;;;;;5053348;28;20256;-66
2022/09/27 03:27:38;;;;;;;7.27;2.27;;;11.50;99.90;;;;;;5053701;28;20504;-66
2022/09/27 03:30:05;;;;;;;9.63;2.17;;;11.50;99.90;;;;;;5035855;28;20064;-65
2022/09/27 03:32:31;;;;;;;6.50;2.40;;;11.50;99.90;;;;;;5053713;28;20075;-65
2022/09/27 03:34:56;;;;;;;11.13;2.97;;;11.40;99.90;;;;;;5053696;28;20483;-65
2022/09/27 03:37:22;;;;;;;8.90;2.10;;;11.40;99.90;;;;;;5053499;28;20032;-65
2022/09/27 03:39:48;;;;;;;9.80;2.33;;;11.40;99.90;;;;;;5053385;28;20025;-65
2022/09/27 03:42:13;;;;;;;10.67;2.37;;;11.40;99.90;;;;;;5053432;28;20381;-65
2022/09/27 03:44:39;;;;;;;7.83;2.10;;;11.40;99.90;;;;;;5053687;28;20075;-65
2022/09/27 03:47:05;;;;;;;8.90;1.95;;;11.40;99.90;;;;;;5053415;28;20024;-65
2022/09/27 03:49:31;;;;;;;11.55;2.50;;;11.40;99.90;;;;;;5053528;28;20470;-64
2022/09/27 03:51:57;;;;;;;9.00;2.33;;;11.40;99.90;;;;;;5053272;28;20029;-65
2022/09/27 03:54:23;;;;;;;7.10;2.08;;;11.40;99.90;;;;;;5053534;28;20502;-65
2022/09/27 03:56:49;;;;;;;7.97;1.92;;;11.50;99.90;;;;;;5053294;28;20482;-64
2022/09/27 03:59:15;;;;;;;12.27;3.27;;;11.50;99.90;;;;;;5052917;28;20045;-64
2022/09/27 04:01:41;;;;;;;11.15;2.90;;;11.40;99.90;;;;;;5053348;28;20482;-64
2022/09/27 04:04:07;;;;;;;8.17;2.30;;;11.40;99.90;;;;;;5053276;28;20062;-64
2022/09/27 04:06:33;;;;;;;9.35;2.58;;;11.40;99.90;;;;;;5053513;28;20267;-64
2022/09/27 04:08:59;;;;;;;7.20;2.00;;;11.40;99.90;;;;;;5053526;28;20025;-62
2022/09/27 04:11:25;;;;;;;11.88;2.72;;;11.40;99.90;;;;;;5053166;28;20052;-63
2022/09/27 04:13:50;;;;;;;10.43;2.53;;;11.40;99.90;;;;;;5053219;28;20079;-62
2022/09/27 04:16:16;;;;;;;9.77;2.23;;;11.40;99.90;;;;;;5053485;28;20083;-62
2022/09/27 04:18:42;;;;;;;11.33;2.13;;;11.40;99.90;;;;;;5053437;28;20025;-62
2022/09/27 04:21:08;;;;;;;11.48;2.45;;;11.40;99.90;;;;;;5053026;28;20513;-61
2022/09/27 04:23:34;;;;;;;9.47;2.10;;;11.40;99.90;;;;;;5053388;28;20056;-62
2022/09/27 04:25:59;;;;;;;10.70;2.25;;;11.40;99.90;;;;;;5053106;28;20041;-62
2022/09/27 04:28:26;;;;;;;5.60;1.85;;;11.40;99.90;;;;;;5053085;28;20655;-63
2022/09/27 04:30:53;;;;;;;7.78;2.38;;;11.40;99.90;;;;;;5034966;28;20058;-62
2022/09/27 04:33:18;;;;;;;8.23;1.98;;;11.30;99.90;;;;;;5052952;28;20432;-61
2022/09/27 04:38:28;;;;;;;10.18;2.30;;;11.20;99.90;;;;;;5057153;28;20492;-62
2022/09/27 04:40:54;;;;;;;7.83;1.83;;;11.20;99.90;;;;;;5057078;28;20021;-63
2022/09/27 04:43:19;;;;;;;9.83;2.77;;;11.20;99.90;;;;;;5057281;28;20496;-63
2022/09/27 04:45:45;;;;;;;7.67;2.00;;;11.10;99.90;;;;;;5056904;28;20270;-63
2022/09/27 04:48:11;;;;;;;7.32;2.00;;;11.20;99.90;;;;;;5056964;28;20048;-63
2022/09/27 04:50:36;;;;;;;10.43;2.40;;;11.20;99.90;;;;;;5056670;28;20036;-65
2022/09/27 04:53:02;;;;;;;5.53;1.70;;;11.20;99.90;;;;;;5056774;28;20017;-68
2022/09/27 04:55:28;;;;;;;6.38;1.65;;;11.20;99.90;;;;;;5056806;28;20313;-68
2022/09/27 04:57:54;;;;;;;7.97;1.90;;;11.30;99.90;;;;;;5038680;28;20021;-67
2022/09/27 05:00:20;;;;;;;4.90;1.88;;;11.20;99.90;;;;;;5056494;28;20107;-65
2022/09/27 05:02:48;;;;;;;6.47;2.03;;;11.20;99.90;;;;;;5056431;28;20053;-67
2022/09/27 05:05:14;;;;;;;9.63;1.95;;;11.10;99.90;;;;;;5038696;28;20060;-68
2022/09/27 05:07:40;;;;;;;5.88;1.73;;;11.20;99.90;;;;;;5056839;28;20056;-65
2022/09/27 05:10:07;;;;;;;3.75;1.73;;;11.20;99.90;;;;;;5056726;28;20371;-66
2022/09/27 05:12:33;;;;;;;7.28;2.05;;;11.20;99.90;;;;;;5056764;28;20037;-65
2022/09/27 05:14:58;;;;;;;7.80;1.90;;;11.10;99.90;;;;;;5056864;28;20061;-66
2022/09/27 05:17:24;;;;;;;4.90;1.80;;;11.20;99.90;;;;;;5056555;28;20036;-64
2022/09/27 05:19:49;;;;;;;8.13;1.93;;;11.30;99.90;;;;;;5056543;28;20029;-65
2022/09/27 05:22:16;;;;;;;7.53;1.97;;;11.20;99.90;;;;;;5056781;28;20021;-65
2022/09/27 05:24:41;;;;;;;5.15;1.50;;;11.10;99.90;;;;;;5057218;28;20385;-65
2022/09/27 05:27:11;;;;;;;4.87;1.53;;;11.00;99.90;;;;;;5057081;28;20036;-65
2022/09/27 05:29:37;;;;;;;6.90;1.83;;;11.10;99.90;;;;;;5056704;28;20032;-66
2022/09/27 05:32:03;;;;;;;7.35;2.10;;;11.10;99.90;;;;;;5057179;28;20029;-66
2022/09/27 05:34:31;;;;;;;5.15;2.03;;;11.00;99.90;;;;;;5056851;28;20490;-66
2022/09/27 05:36:57;;;;;;;6.72;2.03;;;11.00;99.90;;;;;;5055966;28;20021;-65
2022/09/27 05:39:22;;;;;;;8.70;1.88;;;11.00;99.90;;;;;;5056355;28;20544;-66
2022/09/27 05:41:49;;;;;;;7.13;2.10;;;11.00;99.90;;;;;;5056322;28;20021;-65
2022/09/27 05:44:15;;;;;;;6.57;1.60;;;11.00;99.90;;;;;;5056560;28;20104;-66
2022/09/27 05:46:40;;;;;;;4.43;1.55;;;11.00;99.90;;;;;;5055952;28;20060;-66
2022/09/27 05:49:06;;;;;;;7.80;1.80;;;11.10;99.90;;;;;;5055819;28;20064;-66
2022/09/27 05:51:31;;;;;;;5.00;1.20;;;11.10;99.90;;;;;;5038536;28;20029;-65
2022/09/27 05:53:57;;;;;;;3.77;1.43;;;11.00;99.90;;;;;;5056103;28;20116;-65
2022/09/27 05:56:23;;;;;;;4.03;1.40;;;11.10;99.90;;;;;;5056219;28;20017;-66
2022/09/27 05:58:49;;;;;;;4.38;1.23;;;11.10;99.90;;;;;;5056261;28;20052;-65
2022/09/27 06:01:15;;;;;;;3.13;1.10;;;11.00;99.90;;;;;;5038778;28;20037;-65
2022/09/27 06:03:41;;;;;;;4.57;1.30;;;11.10;99.90;;;;;;5056235;28;20027;-65
2022/09/27 06:06:09;;;;;;;4.68;1.40;;;11.10;99.90;;;;;;5056069;28;20031;-65
2022/09/27 06:08:37;;;;;;;5.55;1.50;;;11.10;99.90;;;;;;5055740;28;20087;-65
2022/09/27 06:11:13;;;;;;;2.25;1.13;;;11.00;99.90;;;;;;5055817;28;20493;-65
2022/09/27 06:13:39;;;;;;;3.22;1.15;;;10.90;99.90;;;;;;5056193;28;20078;-65
2022/09/27 06:16:06;;;;;;;5.55;1.38;;;10.90;99.90;;;;;;5055603;28;20029;-65
2022/09/27 06:18:32;;;;;;;2.28;1.10;;;10.90;99.90;;;;;;5055748;28;20036;-65
2022/09/27 06:20:59;;;;;;;6.10;1.52;;;10.90;99.90;;;;;;5055347;28;20099;-65
2022/09/27 06:23:25;;;;;;;2.38;1.05;;;10.90;99.90;;;;;;5055422;28;20055;-65
2022/09/27 06:25:52;;;;;;;4.43;1.27;;;10.80;99.90;;;;;;5055465;28;20415;-65
2022/09/27 06:28:18;;;;;;;3.22;1.00;;;10.90;99.90;;;;;;5055655;28;20052;-65
2022/09/27 06:30:46;;;;;;;4.45;1.05;;;10.90;99.90;;;;;;5055638;28;20028;-66
2022/09/27 06:33:18;;;;;;;2.90;1.00;;;10.80;99.90;;;;;;5037541;28;20025;-66
2022/09/27 06:35:45;;;;;;;4.47;1.30;;;10.80;99.90;;;;;;5055373;28;20100;-65
2022/09/27 06:38:12;;;;;;;2.05;1.10;;;10.80;99.90;;;;;;5056033;28;20113;-66
2022/09/27 06:40:38;;;;;;;4.43;1.45;;;10.80;99.90;;;;;;5055138;28;20392;-65
2022/09/27 06:43:07;;;;;;;3.92;1.00;;;10.90;99.90;;;;;;5055491;28;20458;-66
2022/09/27 06:45:34;;;;;;;3.90;1.00;;;10.90;99.90;;;;;;5055372;28;20528;-66
2022/09/27 06:48:01;;;;;;;3.60;3.05;;;10.90;99.90;;;;;;5055833;28;20036;-66
2022/09/27 06:50:28;;;;;;;2.95;0.80;;;11.10;99.90;;;;;;5055076;28;20028;-65
2022/09/27 06:52:54;;;;;;;4.07;0.80;;;11.00;99.90;;;;;;5055085;28;20071;-64
2022/09/27 06:55:20;;;;;;;2.08;0.63;;;11.10;99.90;;;;;;5054792;28;20024;-65
2022/09/27 07:00:30;;;;;;;1.15;0.70;;;11.10;99.90;;;;;;5054102;28;20846;-64
2022/09/27 07:02:59;;;;;;;1.80;0.75;;;11.10;99.90;;;;;;5054814;28;20028;-66
2022/09/27 07:05:29;;;;;;;3.35;1.00;;;11.10;99.90;;;;;;5054647;28;20389;-64
2022/09/27 07:07:58;;;;;;;3.70;0.98;;;11.10;99.90;;;;;;5036448;28;20029;-64
2022/09/27 07:10:25;;;;;;;4.47;0.95;;;11.20;99.90;;;;;;5053741;28;20028;-65
2022/09/27 07:12:51;;;;;;;1.42;0.70;;;11.30;99.90;;;;;;5054628;28;20079;-64
2022/09/27 07:15:19;;;;;;;2.10;0.70;;;11.30;99.90;;;;;;5036250;28;20033;-64
2022/09/27 07:17:46;;;;;;;1.38;0.70;;;11.40;99.90;;;;;;5053913;28;20021;-64
2022/09/27 07:20:11;;;;;;;4.15;1.55;;;11.40;99.90;;;;;;5054117;28;20055;-64
2022/09/27 07:22:44;;;;;;;2.47;1.43;;;11.40;99.90;;;;;;5054807;28;20465;-64
2022/09/27 07:25:10;;;;;;;4.47;0.88;;;11.40;99.90;;;;;;5054539;28;20477;-65
2022/09/27 07:27:36;;;;;;;5.05;1.35;;;11.40;99.90;;;;;;5054316;28;20021;-65
2022/09/27 07:30:03;;;;;;;2.63;0.70;;;11.40;99.90;;;;;;5054216;28;20033;-65
2022/09/27 07:32:29;;;;;;;4.43;1.13;;;11.40;99.90;;;;;;5054387;28;20110;-64
2022/09/27 07:34:54;;;;;;;1.67;0.70;;;11.50;99.90;;;;;;5054468;28;20482;-64
2022/09/27 07:37:20;;;;;;;3.50;0.80;;;11.50;99.90;;;;;;5053885;28;20017;-65
2022/09/27 07:39:45;;;;;;;1.93;0.70;;;11.50;99.90;;;;;;5053407;28;20029;-65
2022/09/27 07:42:11;;;;;;;3.03;1.37;;;11.60;99.90;;;;;;5053772;28;20043;-65
2022/09/27 07:44:36;;;;;;;1.70;0.60;;;11.70;99.90;;;;;;5054096;28;20550;-64
2022/09/27 07:47:06;;;;;;;2.20;0.70;;;11.80;99.90;;;;;;5036608;28;20017;-64
2022/09/27 07:49:31;;;;;;;1.58;0.80;;;11.80;99.90;;;;;;5054155;28;20021;-64
2022/09/27 07:51:57;;;;;;;1.70;0.97;;;11.90;99.90;;;;;;5054631;28;20493;-64
2022/09/27 07:54:23;;;;;;;4.17;1.00;;;12.00;99.90;;;;;;5054943;28;20536;-65
2022/09/27 07:56:48;;;;;;;2.67;1.10;;;12.00;99.90;;;;;;5054440;28;20159;-65
2022/09/27 07:59:14;;;;;;;2.53;0.80;;;12.00;99.90;;;;;;5053744;28;20032;-65
2022/09/27 08:01:39;;;;;;;4.43;2.47;;;11.90;99.90;;;;;;5054019;28;20123;-65
2022/09/27 08:04:05;;;;;;;3.67;1.13;;;11.90;99.90;;;;;;5054123;28;20413;-65
2022/09/27 08:06:30;;;;;;;3.10;1.50;;;11.90;99.90;;;;;;5054125;28;20021;-65
2022/09/27 08:09:00;;;;;;;4.67;1.67;;;11.90;99.90;;;;;;5035906;28;20064;-64
2022/09/27 08:11:26;;;;;;;5.63;1.20;;;11.90;99.90;;;;;;5053712;28;20032;-64
2022/09/27 08:13:51;;;;;;;3.83;1.20;;;11.90;99.90;;;;;;5053705;28;20025;-65
2022/09/27 08:16:17;;;;;;;5.00;1.23;;;11.90;99.90;;;;;;5053660;28;20025;-65
2022/09/27 08:18:43;;;;;;;3.73;1.30;;;11.90;99.90;;;;;;5054119;28;20103;-65
2022/09/27 08:21:08;;;;;;;5.00;1.80;;;11.90;99.90;;;;;;5053378;28;20075;-65
2022/09/27 08:23:35;;;;;;;3.45;1.25;;;12.00;99.90;;;;;;5053388;28;20028;-65
2022/09/27 08:26:01;;;;;;;4.75;1.13;;;12.50;99.90;;;;;;5035426;28;20035;-65
2022/09/27 08:28:27;;;;;;;2.93;0.90;;;12.70;99.90;;;;;;5053456;28;20100;-65
2022/09/27 08:30:53;;;;;;;3.58;1.10;;;12.80;99.90;;;;;;5053418;28;20251;-65
2022/09/27 08:33:18;;;;;;;3.70;1.30;;;12.90;99.90;;;;;;5053341;28;20033;-65
2022/09/27 08:35:44;;;;;;;3.33;1.27;;;13.20;99.90;;;;;;5053332;28;20420;-65
2022/09/27 08:38:10;;;;;;;4.40;1.63;;;13.40;99.90;;;;;;5053384;28;20255;-65
2022/09/27 08:41:04;;;;;;;4.30;1.40;;;13.60;99.90;;;;;;5053271;28;20464;-65
2022/09/27 08:44:05;;;;;;;4.57;1.10;;;13.60;99.90;;;;;;5053596;28;20471;-65
2022/09/27 08:46:43;;;;;;;5.72;1.10;;;13.40;99.90;;;;;;5053885;28;20025;-65
2022/09/27 08:49:21;;;;;;;4.47;1.10;;;13.90;99.90;;;;;;5035308;28;20540;-65
2022/09/27 08:51:51;;;;;;;3.22;0.80;;;14.40;99.90;;;;;;5053250;28;20112;-65
2022/09/27 08:54:22;;;;;;;3.80;1.10;;;14.30;99.90;;;;;;5053976;28;20087;-65
2022/09/27 08:56:48;;;;;;;15.15;8.52;;;14.00;99.90;;;;;;5053102;28;20049;-65
2022/09/27 08:59:20;;;;;;;2.90;1.40;;;13.90;99.90;;;;;;5053153;28;20071;-65
2022/09/27 09:01:51;;;;;;;8.15;1.70;;;13.80;99.90;;;;;;5053556;28;20033;-65
2022/09/27 09:04:32;;;;;;;3.53;1.65;;;13.80;99.90;;;;;;5053257;28;20103;-65
2022/09/27 09:07:36;;;;;;;5.78;1.83;;;14.00;99.90;;;;;;5053078;28;20071;-65
2022/09/27 09:13:37;;;;;;;5.03;2.00;;;14.00;99.90;;;;;;5053030;28;20084;-65
2022/09/27 09:16:19;;;;;;;6.07;1.60;;;13.80;99.90;;;;;;5026625;28;20039;-65
2022/09/27 09:19:06;;;;;;;6.63;1.90;;;13.60;99.90;;;;;;5053184;28;20040;-66
2022/09/27 09:21:39;;;;;;;6.78;2.50;;;13.40;99.90;;;;;;5052657;28;20143;-65
2022/09/27 09:24:13;;;;;;;6.90;1.90;;;13.30;99.90;;;;;;5037503;28;20025;-65
2022/09/27 09:27:01;;;;;;;5.95;2.08;;;13.40;99.90;;;;;;5056366;28;20048;-65
2022/09/27 09:29:32;;;;;;;5.85;2.25;;;13.60;99.90;;;;;;5056392;28;20040;-65
2022/09/27 09:32:48;;;;;;;4.38;1.63;;;14.20;99.90;;;;;;5056478;28;20474;-65
2022/09/27 09:35:24;;;;;;;5.75;2.33;;;14.60;99.90;;;;;;5030592;28;20451;-65
2022/09/27 09:38:00;;;;;;;5.10;1.60;;;14.50;99.90;;;;;;5056529;28;20032;-65
2022/09/27 09:40:31;;;;;;;3.45;1.40;;;14.20;99.90;;;;;;5056379;28;20029;-65
2022/09/27 09:43:30;;;;;;;1.98;1.17;;;13.80;99.90;;;;;;5056755;28;20383;-64
2022/09/27 09:46:20;;;;;;;3.80;1.10;;;13.30;99.90;;;;;;4995090;28;20142;-65
2022/09/27 09:48:58;;;;;;;4.05;1.20;;;12.90;99.90;;;;;;4995291;28;20395;-64
2022/09/27 09:51:34;;;;;;;3.63;1.80;;;12.80;99.90;;;;;;4994960;28;20057;-65
2022/09/27 09:54:20;;;;;;;4.22;1.65;;;12.70;99.90;;;;;;4995012;28;20022;-65
2022/09/27 09:56:55;;;;;;;4.15;1.58;;;12.60;99.90;;;;;;4995028;28;20026;-64
2022/09/27 09:59:32;;;;;;;4.03;1.75;;;12.70;99.90;;;;;;4994882;28;20451;-64
2022/09/27 10:02:16;;;;;;;35.33;12.13;;;12.60;99.90;;;;;;4994797;28;20025;-64
2022/09/27 10:04:42;;;;;;;7.43;2.58;;;12.60;99.90;;;;;;4994939;28;20431;-64
2022/09/27 10:07:08;;;;;;;19.53;7.07;;;12.40;99.90;;;;;;4994542;28;20031;-65
2022/09/27 10:09:33;;;;;;;6.20;2.15;;;12.40;99.90;;;;;;4978357;28;20066;-65
2022/09/27 10:11:59;;;;;;;5.72;2.22;;;12.30;99.90;;;;;;4993833;28;20494;-64
2022/09/27 10:14:26;;;;;;;6.57;2.30;;;12.30;99.90;;;;;;4993700;28;20106;-65
2022/09/27 10:16:59;;;;;;;7.07;2.25;;;12.40;99.90;;;;;;4993972;28;20439;-64
2022/09/27 10:19:29;;;;;;;7.45;2.25;;;12.50;99.90;;;;;;4977166;28;20068;-64
2022/09/27 10:22:17;;;;;;;6.47;2.40;;;12.70;99.90;;;;;;5014717;28;20490;-65
2022/09/27 10:24:54;;;;;;;4.40;1.77;;;12.70;99.90;;;;;;5055023;28;20095;-64
2022/09/27 10:27:21;;;;;;;5.10;1.80;;;12.60;99.90;;;;;;5037119;28;20116;-66
2022/09/27 10:29:56;;;;;;;7.85;2.60;;;12.50;99.90;;;;;;5055027;28;20029;-66
2022/09/27 10:32:35;;;;;;;6.60;2.00;;;12.40;99.90;;;;;;5055134;28;20478;-65
2022/09/27 10:35:19;;;;;;;9.77;2.50;;;12.30;99.90;;;;;;5054603;28;20107;-65
2022/09/27 10:37:46;;;;;;;7.53;2.92;;;12.00;99.90;;;;;;5055066;28;20045;-65
2022/09/27 10:40:28;;;;;;;9.77;2.50;;;11.70;99.90;;;;;;5054584;28;20025;-66
2022/09/27 10:42:54;;;;;;;4.53;2.13;;;11.40;99.90;;;;;;5054491;28;20032;-65
2022/09/27 10:45:29;;;;;;;1.85;1.20;;;11.20;99.90;;;;;;5036605;28;20021;-66
2022/09/27 10:47:56;;;;;;;10.30;1.60;;;10.90;99.90;;;;;;5054553;28;20025;-68
2022/09/27 10:50:27;;;;;;;2.40;1.05;;;10.70;99.90;;;;;;5054362;28;20379;-68
2022/09/27 10:53:05;;;;;;;2.92;0.90;;;10.60;99.90;;;;;;5036359;28;20082;-69
2022/09/27 10:55:34;;;;;;;1.83;0.85;;;10.50;99.90;;;;;;5054298;28;20056;-69
2022/09/27 10:58:01;;;;;;;3.35;0.90;;;10.30;99.90;;;;;;5054792;28;20029;-69
2022/09/27 11:00:32;;;;;;;1.13;0.68;;;10.30;99.90;;;;;;5054246;28;20464;-69
2022/09/27 11:03:13;;;;;;;2.80;0.82;;;10.20;99.90;;;;;;5037564;28;20494;-69
2022/09/27 11:05:39;;;;;;;1.30;0.50;;;10.10;99.90;;;;;;5054862;28;20021;-68
2022/09/27 11:08:25;;;;;;;0.57;0.50;;;10.00;99.90;;;;;;5054285;28;20048;-69
2022/09/27 11:11:02;;;;;;;1.23;0.50;;;10.10;99.90;;;;;;5054440;28;20039;-70
2022/09/27 11:13:31;;;;;;;2.38;0.73;;;10.10;99.90;;;;;;5054603;28;20071;-69
2022/09/27 11:16:06;;;;;;;2.15;0.90;;;10.00;99.90;;;;;;5054408;28;20052;-70
2022/09/27 11:18:43;;;;;;;1.35;0.50;;;10.00;99.90;;;;;;5054656;28;20427;-69
2022/09/27 11:21:30;;;;;;;1.80;0.50;;;10.10;99.90;;;;;;5054303;28;20097;-69
2022/09/27 11:24:09;;;;;;;2.53;0.97;;;10.10;99.90;;;;;;5054383;28;20021;-68
2022/09/27 11:26:49;;;;;;;1.23;0.57;;;10.10;99.90;;;;;;5054828;28;20255;-70
2022/09/27 11:29:38;;;;;;;1.55;0.80;;;10.00;99.90;;;;;;5036882;28;20032;-70
2022/09/27 11:32:48;;;;;;;1.80;0.65;;;10.00;99.90;;;;;;5039071;28;20027;-69
2022/09/27 11:35:32;;;;;;;1.75;0.68;;;10.00;99.90;;;;;;5060446;28;20080;-68
2022/09/27 11:38:08;;;;;;;1.70;0.80;;;10.00;99.90;;;;;;5060192;28;20025;-69
2022/09/27 11:40:44;;;;;;;1.15;0.60;;;10.00;99.90;;;;;;5062498;28;20454;-68
2022/09/27 11:43:21;;;;;;;2.80;1.13;;;10.00;99.90;;;;;;5057893;28;20021;-68
2022/09/27 11:46:25;;;;;;;2.42;1.20;;;10.10;99.90;;;;;;5038217;28;20020;-67
2022/09/27 11:49:07;;;;;;;1.55;0.93;;;10.00;99.90;;;;;;5053826;28;20016;-67
2022/09/27 11:51:54;;;;;;;3.67;1.05;;;10.10;99.90;;;;;;5035792;28;20477;-67
2022/09/27 11:54:45;;;;;;;5.72;2.15;;;10.30;99.90;;;;;;5035501;28;20083;-67
2022/09/27 11:57:47;;;;;;;2.10;1.42;;;10.60;99.90;;;;;;5053941;28;20047;-69
2022/09/27 12:00:20;;;;;;;3.05;2.38;;;10.60;99.90;;;;;;5035478;28;20099;-67
2022/09/27 12:03:22;;;;;;;2.45;1.15;;;10.70;99.90;;;;;;5053776;28;20029;-66
2022/09/27 12:06:13;;;;;;;1.95;0.98;;;10.80;99.90;;;;;;5035729;28;20441;-66
2022/09/27 12:09:01;;;;;;;3.05;1.23;;;10.80;99.90;;;;;;5053413;28;20024;-65
2022/09/27 12:11:39;;;;;;;2.92;1.00;;;10.90;99.90;;;;;;5035745;28;20025;-65
2022/09/27 12:14:14;;;;;;;3.08;1.00;;;11.00;99.90;;;;;;5053590;28;20055;-64
2022/09/27 12:16:42;;;;;;;3.38;0.88;;;11.00;99.90;;;;;;5054503;28;20481;-67
2022/09/27 12:19:18;;;;;;;2.92;0.80;;;10.90;99.90;;;;;;5036001;28;20048;-66
2022/09/27 12:21:44;;;;;;;3.05;0.80;;;10.90;99.90;;;;;;5035893;28;20393;-66
2022/09/27 12:24:19;;;;;;;1.75;0.95;;;11.00;99.90;;;;;;5053655;28;20025;-65
2022/09/27 12:26:46;;;;;;;3.58;0.90;;;11.10;99.90;;;;;;5053621;28;20439;-67
2022/09/27 12:29:19;;;;;;;2.65;1.08;;;11.20;99.90;;;;;;5053087;28;20060;-64
2022/09/27 12:32:04;;;;;;;4.05;0.95;;;11.40;99.90;;;;;;5053106;28;20025;-65
2022/09/27 12:34:43;;;;;;;4.03;1.00;;;11.50;99.90;;;;;;5053693;28;20025;-64
2022/09/27 12:37:16;;;;;;;3.80;1.33;;;11.60;99.90;;;;;;5053347;28;20052;-64
2022/09/27 12:40:14;;;;;;;3.45;1.00;;;11.70;99.90;;;;;;5053143;28;20031;-64
2022/09/27 12:42:47;;;;;;;2.30;1.00;;;12.00;99.90;;;;;;5053187;28;20067;-61
2022/09/27 12:45:14;;;;;;;3.25;1.40;;;12.10;99.90;;;;;;5053139;28;20025;-63
2022/09/27 12:47:53;;;;;;;3.00;1.90;;;12.20;99.90;;;;;;5053067;28;20100;-67
2022/09/27 12:50:36;;;;;;;3.42;1.00;;;12.40;99.90;;;;;;5052787;28;20029;-62
2022/09/27 12:53:12;;;;;;;3.30;1.08;;;12.50;99.90;;;;;;5052976;28;20032;-64
2022/09/27 12:55:54;;;;;;;4.38;0.90;;;12.70;99.90;;;;;;5052964;28;20027;-66
2022/09/27 12:58:33;;;;;;;1.83;0.80;;;12.80;99.90;;;;;;5055131;28;20025;-66
2022/09/27 13:01:22;;;;;;;1.45;0.80;;;13.00;99.90;;;;;;5056597;28;20033;-64
2022/09/27 13:03:53;;;;;;;3.67;1.17;;;13.00;99.90;;;;;;5057138;28;20029;-66
2022/09/27 13:06:32;;;;;;;1.92;1.10;;;12.90;99.90;;;;;;5056856;28;20071;-65
2022/09/27 13:09:26;;;;;;;4.22;1.20;;;12.80;99.90;;;;;;5056695;28;20024;-68
2022/09/27 13:11:55;;;;;;;3.78;1.20;;;12.80;99.90;;;;;;5056828;28;20108;-68
2022/09/27 13:14:28;;;;;;;2.45;1.48;;;12.80;99.90;;;;;;5056375;28;20108;-67
2022/09/27 13:16:54;;;;;;;3.50;1.17;;;12.90;99.90;;;;;;5056634;28;20039;-66
2022/09/27 13:19:34;;;;;;;3.43;1.13;;;13.00;99.90;;;;;;5056215;28;20032;-65
2022/09/27 13:22:03;;;;;;;2.60;1.10;;;12.90;99.90;;;;;;5056073;28;20029;-64
2022/09/27 13:24:40;;;;;;;2.38;1.10;;;12.90;99.90;;;;;;5056351;28;20092;-64